createdAt,value
2019-03-29T00:00:42.282Z,0.00
2019-03-29T00:01:42.267Z,0.00
2019-03-29T00:02:42.909Z,0.00
2019-03-29T00:03:42.307Z,0.00
2019-03-29T00:04:42.262Z,0.00
2019-03-29T00:05:42.225Z,0.00
2019-03-29T00:06:42.212Z,0.00
2019-03-29T00:07:42.322Z,0.00
2019-03-29T00:08:42.198Z,0.00
2019-03-29T00:09:42.198Z,0.00
2019-03-29T00:10:42.177Z,0.00
2019-03-29T00:11:42.157Z,0.00
2019-03-29T00:12:42.151Z,0.00
2019-03-29T00:13:42.186Z,0.00
2019-03-29T00:14:42.352Z,0.00
2019-03-29T00:15:42.114Z,0.00
2019-03-29T00:16:42.099Z,0.00
2019-03-29T00:17:42.084Z,0.00
2019-03-29T00:18:42.083Z,0.00
2019-03-29T00:19:42.099Z,0.00
2019-03-29T00:20:42.053Z,0.00
2019-03-29T00:21:42.061Z,0.00
2019-03-29T00:22:42.037Z,0.00
2019-03-29T00:23:42.020Z,0.00
2019-03-29T00:24:42.046Z,0.00
2019-03-29T00:25:42.030Z,0.00
2019-03-29T00:26:41.993Z,0.00
2019-03-29T00:27:41.978Z,0.00
2019-03-29T00:28:41.983Z,0.00
2019-03-29T00:29:41.959Z,0.00
2019-03-29T00:30:41.972Z,0.00
2019-03-29T00:31:41.931Z,0.00
2019-03-29T00:32:41.922Z,0.00
2019-03-29T00:33:41.924Z,0.00
2019-03-29T00:34:42.081Z,0.00
2019-03-29T00:35:41.919Z,0.00
2019-03-29T00:36:41.881Z,0.00
2019-03-29T00:37:52.818Z,0.00
2019-03-29T00:38:42.852Z,0.00
2019-03-29T00:39:41.870Z,0.00
2019-03-29T00:40:41.853Z,0.00
2019-03-29T00:41:41.820Z,0.00
2019-03-29T00:42:42.963Z,0.00
2019-03-29T00:43:41.805Z,0.00
2019-03-29T00:44:41.795Z,0.00
2019-03-29T00:45:41.796Z,0.00
2019-03-29T00:46:41.771Z,0.00
2019-03-29T00:47:41.756Z,0.00
2019-03-29T00:48:41.736Z,0.00
2019-03-29T00:49:41.726Z,0.00
2019-03-29T00:50:41.753Z,0.00
2019-03-29T00:51:41.706Z,0.00
2019-03-29T00:52:42.343Z,0.00
2019-03-29T00:53:41.681Z,0.00
2019-03-29T00:54:41.669Z,0.00
2019-03-29T00:55:41.690Z,0.00
2019-03-29T00:56:41.654Z,0.00
2019-03-29T00:57:41.637Z,0.00
2019-03-29T00:58:41.624Z,0.00
2019-03-29T00:59:41.614Z,0.00
2019-03-29T01:00:41.627Z,0.00
2019-03-29T01:01:41.595Z,0.00
2019-03-29T01:02:41.583Z,0.00
2019-03-29T01:03:41.572Z,0.00
2019-03-29T01:04:41.566Z,0.00
2019-03-29T01:05:41.549Z,0.00
2019-03-29T01:06:41.561Z,0.00
2019-03-29T01:07:41.531Z,0.00
2019-03-29T01:08:41.518Z,0.00
2019-03-29T01:09:41.503Z,0.00
2019-03-29T01:10:41.511Z,0.00
2019-03-29T01:11:41.515Z,0.00
2019-03-29T01:12:41.492Z,0.00
2019-03-29T01:13:41.463Z,0.00
2019-03-29T01:14:42.268Z,0.00
2019-03-29T01:15:41.445Z,0.00
2019-03-29T01:16:41.474Z,0.00
2019-03-29T01:17:41.412Z,0.00
2019-03-29T01:18:41.407Z,0.00
2019-03-29T01:19:41.440Z,0.00
2019-03-29T01:20:41.389Z,0.00
2019-03-29T01:21:41.404Z,0.00
2019-03-29T01:22:41.357Z,0.00
2019-03-29T01:23:41.348Z,0.00
2019-03-29T01:24:41.457Z,0.00
2019-03-29T01:25:41.348Z,0.00
2019-03-29T01:26:41.347Z,0.00
2019-03-29T01:27:41.308Z,0.00
2019-03-29T01:28:41.290Z,0.00
2019-03-29T01:29:41.280Z,0.00
2019-03-29T01:30:41.317Z,0.00
2019-03-29T01:31:41.284Z,0.00
2019-03-29T01:32:41.243Z,0.00
2019-03-29T01:33:41.290Z,0.00
2019-03-29T01:34:41.227Z,0.00
2019-03-29T01:35:41.218Z,0.00
2019-03-29T01:36:41.229Z,0.00
2019-03-29T01:37:41.193Z,0.00
2019-03-29T01:38:41.193Z,0.00
2019-03-29T01:39:41.170Z,0.00
2019-03-29T01:40:41.157Z,0.00
2019-03-29T01:41:41.483Z,0.00
2019-03-29T01:42:41.136Z,0.00
2019-03-29T01:43:41.124Z,0.00
2019-03-29T01:44:41.114Z,0.00
2019-03-29T01:45:41.106Z,0.00
2019-03-29T01:46:41.126Z,0.00
2019-03-29T01:47:41.078Z,0.00
2019-03-29T01:48:41.070Z,0.00
2019-03-29T01:49:41.233Z,0.00
2019-03-29T01:50:41.046Z,0.00
2019-03-29T01:51:41.057Z,0.00
2019-03-29T01:52:41.027Z,0.00
2019-03-29T01:53:41.011Z,0.00
2019-03-29T01:54:40.997Z,0.00
2019-03-29T01:55:40.996Z,0.00
2019-03-29T01:56:41.163Z,0.00
2019-03-29T01:57:41.004Z,0.00
2019-03-29T01:58:40.953Z,0.00
2019-03-29T01:59:40.944Z,0.00
2019-03-29T02:00:40.931Z,0.00
2019-03-29T02:01:40.949Z,0.00
2019-03-29T02:02:40.947Z,0.00
2019-03-29T02:03:40.897Z,0.00
2019-03-29T02:04:40.890Z,0.00
2019-03-29T02:05:40.925Z,0.00
2019-03-29T02:06:40.881Z,0.00
2019-03-29T02:07:40.879Z,0.00
2019-03-29T02:08:40.842Z,0.00
2019-03-29T02:09:40.887Z,0.00
2019-03-29T02:10:40.825Z,0.00
2019-03-29T02:11:41.090Z,0.00
2019-03-29T02:12:40.835Z,0.00
2019-03-29T02:13:40.794Z,0.00
2019-03-29T02:14:40.803Z,0.00
2019-03-29T02:15:40.765Z,0.00
2019-03-29T02:16:40.767Z,0.00
2019-03-29T02:17:40.776Z,0.00
2019-03-29T02:18:40.728Z,0.00
2019-03-29T02:19:40.723Z,0.00
2019-03-29T02:20:40.709Z,0.00
2019-03-29T02:21:40.703Z,0.00
2019-03-29T02:22:40.715Z,0.00
2019-03-29T02:23:40.707Z,0.00
2019-03-29T02:24:40.663Z,0.00
2019-03-29T02:25:40.658Z,0.00
2019-03-29T02:26:40.640Z,0.00
2019-03-29T02:27:40.662Z,0.00
2019-03-29T02:28:40.621Z,0.00
2019-03-29T02:29:40.608Z,0.00
2019-03-29T02:30:40.601Z,0.00
2019-03-29T02:31:42.402Z,0.00
2019-03-29T02:32:40.599Z,0.00
2019-03-29T02:33:40.583Z,0.00
2019-03-29T02:34:40.684Z,0.00
2019-03-29T02:35:40.543Z,0.00
2019-03-29T02:36:40.557Z,0.00
2019-03-29T02:37:40.544Z,0.00
2019-03-29T02:38:54.221Z,0.00
2019-03-29T02:39:41.509Z,0.00
2019-03-29T02:40:40.486Z,0.00
2019-03-29T02:41:40.476Z,0.00
2019-03-29T02:42:40.506Z,0.00
2019-03-29T02:43:40.479Z,0.00
2019-03-29T02:44:40.452Z,0.00
2019-03-29T02:45:40.427Z,0.00
2019-03-29T02:46:40.416Z,0.00
2019-03-29T02:47:40.410Z,0.00
2019-03-29T02:48:40.426Z,0.00
2019-03-29T02:49:40.702Z,0.00
2019-03-29T02:50:40.375Z,0.00
2019-03-29T02:51:40.366Z,0.00
2019-03-29T02:52:40.428Z,0.00
2019-03-29T02:53:40.363Z,0.00
2019-03-29T02:54:40.325Z,0.00
2019-03-29T02:55:40.317Z,0.00
2019-03-29T02:56:40.305Z,0.00
2019-03-29T02:57:40.301Z,0.00
2019-03-29T02:58:40.318Z,0.00
2019-03-29T02:59:40.273Z,0.00
2019-03-29T03:00:40.274Z,0.00
2019-03-29T03:01:40.249Z,0.00
2019-03-29T03:02:40.249Z,0.00
2019-03-29T03:03:40.257Z,0.00
2019-03-29T03:04:40.214Z,0.00
2019-03-29T03:05:40.236Z,0.00
2019-03-29T03:06:40.194Z,0.00
2019-03-29T03:07:40.187Z,0.00
2019-03-29T03:08:40.199Z,0.00
2019-03-29T03:09:40.164Z,0.00
2019-03-29T03:10:40.156Z,0.00
2019-03-29T03:11:40.141Z,0.00
2019-03-29T03:12:40.125Z,0.00
2019-03-29T03:13:40.168Z,0.00
2019-03-29T03:14:40.120Z,0.00
2019-03-29T03:15:40.096Z,0.00
2019-03-29T03:16:40.099Z,0.00
2019-03-29T03:17:40.076Z,0.00
2019-03-29T03:18:40.149Z,0.00
2019-03-29T03:19:40.049Z,0.00
2019-03-29T03:20:40.037Z,0.00
2019-03-29T03:21:40.021Z,0.00
2019-03-29T03:22:40.015Z,0.00
2019-03-29T03:23:40.051Z,0.00
2019-03-29T03:24:40.016Z,0.00
2019-03-29T03:25:39.974Z,0.00
2019-03-29T03:26:39.971Z,0.00
2019-03-29T03:27:39.958Z,0.00
2019-03-29T03:28:39.942Z,0.00
2019-03-29T03:29:39.973Z,0.00
2019-03-29T03:30:39.921Z,0.00
2019-03-29T03:31:39.940Z,0.00
2019-03-29T03:32:39.907Z,0.00
2019-03-29T03:33:39.886Z,0.00
2019-03-29T03:34:39.902Z,0.00
2019-03-29T03:35:39.884Z,0.00
2019-03-29T03:36:39.855Z,0.00
2019-03-29T03:37:39.845Z,0.00
2019-03-29T03:38:39.864Z,0.00
2019-03-29T03:39:39.848Z,0.00
2019-03-29T03:40:39.822Z,0.00
2019-03-29T03:41:39.797Z,0.00
2019-03-29T03:42:39.788Z,0.00
2019-03-29T03:43:39.773Z,0.00
2019-03-29T03:44:39.785Z,0.00
2019-03-29T03:45:39.807Z,0.00
2019-03-29T03:46:39.742Z,0.00
2019-03-29T03:47:39.732Z,0.00
2019-03-29T03:48:39.729Z,0.00
2019-03-29T03:49:39.738Z,0.00
2019-03-29T03:50:39.695Z,0.00
2019-03-29T03:51:39.690Z,0.00
2019-03-29T03:52:39.670Z,0.00
2019-03-29T03:53:39.678Z,0.00
2019-03-29T03:54:39.679Z,0.00
2019-03-29T03:55:39.647Z,0.00
2019-03-29T03:56:39.629Z,0.00
2019-03-29T03:57:39.630Z,0.00
2019-03-29T03:58:39.609Z,0.00
2019-03-29T03:59:39.647Z,0.00
2019-03-29T04:00:39.584Z,0.00
2019-03-29T04:01:39.576Z,0.00
2019-03-29T04:02:39.561Z,0.00
2019-03-29T04:03:39.555Z,0.00
2019-03-29T04:04:39.570Z,0.00
2019-03-29T04:05:39.535Z,0.00
2019-03-29T04:06:39.516Z,0.00
2019-03-29T04:07:39.514Z,0.00
2019-03-29T04:08:39.496Z,0.00
2019-03-29T04:09:49.542Z,0.00
2019-03-29T04:10:42.284Z,0.00
2019-03-29T04:11:39.468Z,0.00
2019-03-29T04:12:39.447Z,0.00
2019-03-29T04:13:39.442Z,0.00
2019-03-29T04:14:39.477Z,0.00
2019-03-29T04:15:39.450Z,0.00
2019-03-29T04:16:39.402Z,0.00
2019-03-29T04:17:39.389Z,0.00
2019-03-29T04:18:39.431Z,0.00
2019-03-29T04:19:39.381Z,0.00
2019-03-29T04:20:39.388Z,0.00
2019-03-29T04:21:39.355Z,0.00
2019-03-29T04:22:39.415Z,0.00
2019-03-29T04:23:39.330Z,0.00
2019-03-29T04:24:39.319Z,0.00
2019-03-29T04:25:39.328Z,0.00
2019-03-29T04:26:39.289Z,0.00
2019-03-29T04:27:39.380Z,0.00
2019-03-29T04:28:39.282Z,0.00
2019-03-29T04:29:39.262Z,0.00
2019-03-29T04:30:39.270Z,0.00
2019-03-29T04:31:39.235Z,0.00
2019-03-29T04:32:39.225Z,0.00
2019-03-29T04:33:39.213Z,0.00
2019-03-29T04:34:39.206Z,0.00
2019-03-29T04:35:39.240Z,0.00
2019-03-29T04:36:39.190Z,0.00
2019-03-29T04:37:39.177Z,0.00
2019-03-29T04:38:39.160Z,0.00
2019-03-29T04:39:39.145Z,0.00
2019-03-29T04:40:39.160Z,0.00
2019-03-29T04:41:39.192Z,0.00
2019-03-29T04:42:39.115Z,0.00
2019-03-29T04:43:39.099Z,0.00
2019-03-29T04:44:39.114Z,0.00
2019-03-29T04:45:39.105Z,0.00
2019-03-29T04:46:39.080Z,0.00
2019-03-29T04:47:39.053Z,0.00
2019-03-29T04:48:39.049Z,0.00
2019-03-29T04:49:39.055Z,0.00
2019-03-29T04:50:39.080Z,0.00
2019-03-29T04:51:39.015Z,0.00
2019-03-29T04:52:39.002Z,0.00
2019-03-29T04:53:38.986Z,4.00
2019-03-29T04:54:38.972Z,0.00
2019-03-29T04:55:38.995Z,0.00
2019-03-29T04:56:38.959Z,4.00
2019-03-29T04:57:38.980Z,0.00
2019-03-29T04:58:38.926Z,4.00
2019-03-29T04:59:38.917Z,0.00
2019-03-29T05:00:38.934Z,4.00
2019-03-29T05:01:38.896Z,4.00
2019-03-29T05:02:38.888Z,8.00
2019-03-29T05:03:38.871Z,8.00
2019-03-29T05:04:38.871Z,8.00
2019-03-29T05:05:38.850Z,8.00
2019-03-29T05:06:38.858Z,8.00
2019-03-29T05:07:38.844Z,12.00
2019-03-29T05:08:38.815Z,12.00
2019-03-29T05:09:38.799Z,16.00
2019-03-29T05:10:38.811Z,16.00
2019-03-29T05:11:38.806Z,16.00
2019-03-29T05:12:38.770Z,20.00
2019-03-29T05:13:38.758Z,20.00
2019-03-29T05:14:38.742Z,28.00
2019-03-29T05:15:38.742Z,28.00
2019-03-29T05:16:38.748Z,32.00
2019-03-29T05:17:38.719Z,36.00
2019-03-29T05:18:38.698Z,36.00
2019-03-29T05:19:38.693Z,40.00
2019-03-29T05:20:38.682Z,44.00
2019-03-29T05:21:38.708Z,48.00
2019-03-29T05:22:38.653Z,52.00
2019-03-29T05:23:38.678Z,60.00
2019-03-29T05:24:38.633Z,60.00
2019-03-29T05:25:38.620Z,64.00
2019-03-29T05:26:38.636Z,72.00
2019-03-29T05:27:38.624Z,76.00
2019-03-29T05:28:38.588Z,80.00
2019-03-29T05:29:38.576Z,88.00
2019-03-29T05:30:38.561Z,92.00
2019-03-29T05:31:38.559Z,96.00
2019-03-29T05:32:38.566Z,104.00
2019-03-29T05:33:38.561Z,108.00
2019-03-29T05:34:38.526Z,112.00
2019-03-29T05:35:38.506Z,120.00
2019-03-29T05:36:38.494Z,124.00
2019-03-29T05:37:38.550Z,128.00
2019-03-29T05:38:38.476Z,132.00
2019-03-29T05:39:38.461Z,140.00
2019-03-29T05:40:38.451Z,144.00
2019-03-29T05:41:38.482Z,152.00
2019-03-29T05:42:38.459Z,156.00
2019-03-29T05:43:38.416Z,160.00
2019-03-29T05:44:40.765Z,168.00
2019-03-29T05:45:38.400Z,172.00
2019-03-29T05:46:38.383Z,180.00
2019-03-29T05:47:38.441Z,184.00
2019-03-29T05:48:38.368Z,188.00
2019-03-29T05:49:38.368Z,196.00
2019-03-29T05:50:38.338Z,200.00
2019-03-29T05:51:38.333Z,208.00
2019-03-29T05:52:38.353Z,212.00
2019-03-29T05:53:38.306Z,220.00
2019-03-29T05:54:38.370Z,224.00
2019-03-29T05:55:38.281Z,232.00
2019-03-29T05:56:38.270Z,232.00
2019-03-29T05:57:38.319Z,236.00
2019-03-29T05:58:38.249Z,244.00
2019-03-29T05:59:38.242Z,252.00
2019-03-29T06:00:38.228Z,256.00
2019-03-29T06:01:38.217Z,264.00
2019-03-29T06:02:38.230Z,268.00
2019-03-29T06:03:38.198Z,276.00
2019-03-29T06:04:38.182Z,276.00
2019-03-29T06:05:38.179Z,280.00
2019-03-29T06:06:38.160Z,288.00
2019-03-29T06:07:38.246Z,296.00
2019-03-29T06:08:38.136Z,296.00
2019-03-29T06:09:38.128Z,304.00
2019-03-29T06:10:48.301Z,308.00
2019-03-29T06:11:39.105Z,316.00
2019-03-29T06:12:38.117Z,328.00
2019-03-29T06:13:38.081Z,328.00
2019-03-29T06:14:38.073Z,332.00
2019-03-29T06:15:38.062Z,340.00
2019-03-29T06:16:39.438Z,340.00
2019-03-29T06:17:47.956Z,316.00
2019-03-29T06:18:39.027Z,336.00
2019-03-29T06:19:38.080Z,336.00
2019-03-29T06:20:38.000Z,360.00
2019-03-29T06:21:37.990Z,348.00
2019-03-29T06:22:38.001Z,340.00
2019-03-29T06:23:37.970Z,364.00
2019-03-29T06:24:37.961Z,364.00
2019-03-29T06:25:37.976Z,384.00
2019-03-29T06:26:37.972Z,356.00
2019-03-29T06:27:37.926Z,364.00
2019-03-29T06:28:37.939Z,368.00
2019-03-29T06:29:37.902Z,360.00
2019-03-29T06:30:37.889Z,384.00
2019-03-29T06:31:37.879Z,368.00
2019-03-29T06:32:37.879Z,380.00
2019-03-29T06:33:37.917Z,368.00
2019-03-29T06:34:37.847Z,380.00
2019-03-29T06:35:37.839Z,388.00
2019-03-29T06:36:37.860Z,384.00
2019-03-29T06:37:37.819Z,384.00
2019-03-29T06:38:37.824Z,456.00
2019-03-29T06:39:37.787Z,392.00
2019-03-29T06:40:37.778Z,432.00
2019-03-29T06:41:37.768Z,400.00
2019-03-29T06:42:37.775Z,404.00
2019-03-29T06:43:37.769Z,416.00
2019-03-29T06:44:37.727Z,408.00
2019-03-29T06:45:47.961Z,408.00
2019-03-29T06:46:38.713Z,416.00
2019-03-29T06:47:37.700Z,424.00
2019-03-29T06:48:37.715Z,420.00
2019-03-29T06:49:37.676Z,440.00
2019-03-29T06:50:37.678Z,428.00
2019-03-29T06:51:37.653Z,436.00
2019-03-29T06:52:37.641Z,456.00
2019-03-29T06:53:37.653Z,432.00
2019-03-29T06:54:37.636Z,444.00
2019-03-29T06:55:37.601Z,456.00
2019-03-29T06:56:37.590Z,452.00
2019-03-29T06:57:37.584Z,456.00
2019-03-29T06:58:37.596Z,452.00
2019-03-29T06:59:37.557Z,464.00
2019-03-29T07:00:37.550Z,468.00
2019-03-29T07:01:37.538Z,492.00
2019-03-29T07:02:37.524Z,540.00
2019-03-29T07:03:37.547Z,472.00
2019-03-29T07:04:37.500Z,512.00
2019-03-29T07:05:37.488Z,504.00
2019-03-29T07:06:37.510Z,488.00
2019-03-29T07:07:37.467Z,532.00
2019-03-29T07:08:37.504Z,576.00
2019-03-29T07:09:37.447Z,536.00
2019-03-29T07:10:37.442Z,552.00
2019-03-29T07:11:39.623Z,512.00
2019-03-29T07:12:37.411Z,536.00
2019-03-29T07:13:37.424Z,568.00
2019-03-29T07:14:37.394Z,544.00
2019-03-29T07:15:37.431Z,616.00
2019-03-29T07:16:37.373Z,576.00
2019-03-29T07:17:37.361Z,616.00
2019-03-29T07:18:37.344Z,540.00
2019-03-29T07:19:37.358Z,592.00
2019-03-29T07:20:37.336Z,544.00
2019-03-29T07:21:37.325Z,652.00
2019-03-29T07:22:37.299Z,608.00
2019-03-29T07:23:37.290Z,564.00
2019-03-29T07:24:37.300Z,608.00
2019-03-29T07:25:37.276Z,640.00
2019-03-29T07:26:37.277Z,592.00
2019-03-29T07:27:44.739Z,580.00
2019-03-29T07:28:38.246Z,648.00
2019-03-29T07:29:37.245Z,676.00
2019-03-29T07:30:37.207Z,632.00
2019-03-29T07:31:37.201Z,588.00
2019-03-29T07:32:37.202Z,608.00
2019-03-29T07:33:37.171Z,572.00
2019-03-29T07:34:37.195Z,592.00
2019-03-29T07:35:37.149Z,592.00
2019-03-29T07:36:37.424Z,624.00
2019-03-29T07:37:37.152Z,660.00
2019-03-29T07:38:37.128Z,680.00
2019-03-29T07:39:37.146Z,664.00
2019-03-29T07:40:37.094Z,656.00
2019-03-29T07:41:37.085Z,684.00
2019-03-29T07:42:37.075Z,676.00
2019-03-29T07:43:37.098Z,700.00
2019-03-29T07:44:37.103Z,700.00
2019-03-29T07:45:37.149Z,704.00
2019-03-29T07:46:37.059Z,708.00
2019-03-29T07:47:37.015Z,712.00
2019-03-29T07:48:40.324Z,712.00
2019-03-29T07:49:37.020Z,716.00
2019-03-29T07:50:36.980Z,724.00
2019-03-29T07:51:37.057Z,720.00
2019-03-29T07:52:36.965Z,724.00
2019-03-29T07:53:36.948Z,724.00
2019-03-29T07:54:36.999Z,728.00
2019-03-29T07:55:37.591Z,732.00
2019-03-29T07:56:36.913Z,736.00
2019-03-29T07:57:36.977Z,736.00
2019-03-29T07:58:36.893Z,736.00
2019-03-29T07:59:36.903Z,736.00
2019-03-29T08:00:36.909Z,736.00
2019-03-29T08:01:36.876Z,740.00
2019-03-29T08:02:36.848Z,740.00
2019-03-29T08:03:36.833Z,744.00
2019-03-29T08:04:36.855Z,744.00
2019-03-29T08:05:36.822Z,748.00
2019-03-29T08:06:36.807Z,752.00
2019-03-29T08:07:36.816Z,752.00
2019-03-29T08:08:36.781Z,752.00
2019-03-29T08:09:36.776Z,752.00
2019-03-29T08:10:36.818Z,756.00
2019-03-29T08:11:46.064Z,760.00
2019-03-29T08:12:40.370Z,764.00
2019-03-29T08:13:36.867Z,764.00
2019-03-29T08:14:36.711Z,764.00
2019-03-29T08:15:36.727Z,768.00
2019-03-29T08:16:36.689Z,772.00
2019-03-29T08:17:36.680Z,776.00
2019-03-29T08:18:36.666Z,780.00
2019-03-29T08:19:37.281Z,780.00
2019-03-29T08:20:40.554Z,784.00
2019-03-29T08:21:37.711Z,788.00
2019-03-29T08:22:36.635Z,788.00
2019-03-29T08:23:36.615Z,792.00
2019-03-29T08:24:36.598Z,796.00
2019-03-29T08:25:36.624Z,800.00
2019-03-29T08:26:36.577Z,804.00
2019-03-29T08:27:36.566Z,808.00
2019-03-29T08:28:36.551Z,812.00
2019-03-29T08:29:36.544Z,812.00
2019-03-29T08:30:36.557Z,804.00
2019-03-29T08:31:36.519Z,824.00
2019-03-29T08:32:36.559Z,824.00
2019-03-29T08:33:36.504Z,832.00
2019-03-29T08:34:36.485Z,832.00
2019-03-29T08:35:36.540Z,836.00
2019-03-29T08:36:36.470Z,840.00
2019-03-29T08:37:36.449Z,844.00
2019-03-29T08:38:36.440Z,848.00
2019-03-29T08:39:36.434Z,856.00
2019-03-29T08:40:36.483Z,860.00
2019-03-29T08:41:36.406Z,864.00
2019-03-29T08:42:36.405Z,872.00
2019-03-29T08:43:36.391Z,872.00
2019-03-29T08:44:36.375Z,876.00
2019-03-29T08:45:36.388Z,884.00
2019-03-29T08:46:36.367Z,888.00
2019-03-29T08:47:36.369Z,892.00
2019-03-29T08:48:36.346Z,896.00
2019-03-29T08:49:36.314Z,904.00
2019-03-29T08:50:36.404Z,908.00
2019-03-29T08:51:36.294Z,912.00
2019-03-29T08:52:36.282Z,924.00
2019-03-29T08:53:36.277Z,932.00
2019-03-29T08:54:36.268Z,936.00
2019-03-29T08:55:45.573Z,940.00
2019-03-29T08:56:37.234Z,944.00
2019-03-29T08:57:36.226Z,952.00
2019-03-29T08:58:36.271Z,956.00
2019-03-29T08:59:36.205Z,964.00
2019-03-29T09:00:36.225Z,976.00
2019-03-29T09:01:36.178Z,992.00
2019-03-29T09:02:36.167Z,1008.00
2019-03-29T09:03:36.183Z,1028.00
2019-03-29T09:04:36.149Z,1048.00
2019-03-29T09:05:38.992Z,1072.00
2019-03-29T09:06:36.133Z,1088.00
2019-03-29T09:07:44.645Z,1108.00
2019-03-29T09:08:37.105Z,1132.00
2019-03-29T09:09:36.113Z,1156.00
2019-03-29T09:10:36.082Z,1180.00
2019-03-29T09:11:38.807Z,1204.00
2019-03-29T09:12:36.065Z,1224.00
2019-03-29T09:13:36.085Z,1248.00
2019-03-29T09:14:36.039Z,1268.00
2019-03-29T09:15:36.033Z,1296.00
2019-03-29T09:16:36.044Z,1316.00
2019-03-29T09:17:36.007Z,1340.00
2019-03-29T09:18:35.988Z,1364.00
2019-03-29T09:19:35.975Z,1392.00
2019-03-29T09:20:35.991Z,1420.00
2019-03-29T09:21:35.960Z,1448.00
2019-03-29T09:22:35.962Z,1476.00
2019-03-29T09:23:35.934Z,1500.00
2019-03-29T09:24:35.927Z,1528.00
2019-03-29T09:25:35.946Z,1556.00
2019-03-29T09:26:35.926Z,1584.00
2019-03-29T09:27:35.892Z,1616.00
2019-03-29T09:28:35.881Z,1644.00
2019-03-29T09:29:35.870Z,1672.00
2019-03-29T09:30:35.853Z,1700.00
2019-03-29T09:31:35.868Z,1732.00
2019-03-29T09:32:35.828Z,1760.00
2019-03-29T09:33:35.818Z,1796.00
2019-03-29T09:34:35.806Z,1832.00
2019-03-29T09:35:35.797Z,1860.00
2019-03-29T09:36:35.844Z,1892.00
2019-03-29T09:37:35.776Z,1924.00
2019-03-29T09:38:35.761Z,1964.00
2019-03-29T09:39:35.770Z,2000.00
2019-03-29T09:40:35.746Z,2036.00
2019-03-29T09:41:35.767Z,2076.00
2019-03-29T09:42:35.722Z,2108.00
2019-03-29T09:43:35.715Z,2144.00
2019-03-29T09:44:35.699Z,2180.00
2019-03-29T09:45:35.684Z,2220.00
2019-03-29T09:46:35.706Z,2268.00
2019-03-29T09:47:40.083Z,2304.00
2019-03-29T09:48:36.649Z,2344.00
2019-03-29T09:49:35.650Z,2392.00
2019-03-29T09:50:35.633Z,2432.00
2019-03-29T09:51:36.150Z,2476.00
2019-03-29T09:52:35.610Z,2516.00
2019-03-29T09:53:35.618Z,2568.00
2019-03-29T09:54:35.580Z,2604.00
2019-03-29T09:55:35.568Z,2656.00
2019-03-29T09:56:39.184Z,2712.00
2019-03-29T09:57:37.936Z,2748.00
2019-03-29T09:58:35.544Z,2800.00
2019-03-29T09:59:35.538Z,2860.00
2019-03-29T10:00:35.525Z,2928.00
2019-03-29T10:01:35.581Z,2984.00
2019-03-29T10:02:36.434Z,3028.00
2019-03-29T10:03:35.476Z,3068.00
2019-03-29T10:04:35.465Z,3124.00
2019-03-29T10:05:35.456Z,3176.00
2019-03-29T10:06:35.495Z,3228.00
2019-03-29T10:07:35.433Z,3292.00
2019-03-29T10:08:35.420Z,3344.00
2019-03-29T10:09:35.410Z,3408.00
2019-03-29T10:10:35.401Z,3452.00
2019-03-29T10:11:35.395Z,3512.00
2019-03-29T10:12:43.482Z,3584.00
2019-03-29T10:13:36.364Z,3656.00
2019-03-29T10:14:35.353Z,3764.00
2019-03-29T10:15:35.350Z,3816.00
2019-03-29T10:16:35.332Z,3868.00
2019-03-29T10:17:35.343Z,3928.00
2019-03-29T10:18:35.317Z,3996.00
2019-03-29T10:19:35.313Z,4060.00
2019-03-29T10:20:35.287Z,4108.00
2019-03-29T10:21:35.278Z,4176.00
2019-03-29T10:22:35.291Z,4252.00
2019-03-29T10:23:35.253Z,4344.00
2019-03-29T10:24:35.240Z,4384.00
2019-03-29T10:25:35.229Z,4464.00
2019-03-29T10:26:35.217Z,4528.00
2019-03-29T10:27:35.278Z,4632.00
2019-03-29T10:28:35.205Z,4704.00
2019-03-29T10:29:35.190Z,4744.00
2019-03-29T10:30:35.188Z,4832.00
2019-03-29T10:31:35.203Z,4924.00
2019-03-29T10:32:35.180Z,4972.00
2019-03-29T10:33:35.146Z,5048.00
2019-03-29T10:34:37.545Z,5088.00
2019-03-29T10:35:50.272Z,5156.00
2019-03-29T10:36:36.106Z,5272.00
2019-03-29T10:37:35.154Z,5332.00
2019-03-29T10:38:35.089Z,5428.00
2019-03-29T10:39:35.820Z,5484.00
2019-03-29T10:40:35.071Z,5548.00
2019-03-29T10:41:37.988Z,5588.00
2019-03-29T10:42:35.092Z,5680.00
2019-03-29T10:43:35.027Z,5732.00
2019-03-29T10:44:35.013Z,5740.00
2019-03-29T10:45:39.945Z,5888.00
2019-03-29T10:46:36.038Z,6008.00
2019-03-29T10:47:43.809Z,6056.00
2019-03-29T10:48:35.968Z,6140.00
2019-03-29T10:49:34.968Z,6260.00
2019-03-29T10:50:34.945Z,6372.00
2019-03-29T10:51:34.959Z,6480.00
2019-03-29T10:52:34.953Z,6400.00
2019-03-29T10:53:34.915Z,6532.00
2019-03-29T10:54:34.906Z,4624.00
2019-03-29T10:55:34.896Z,5432.00
2019-03-29T10:56:34.886Z,5600.00
2019-03-29T10:57:34.918Z,7148.00
2019-03-29T10:58:34.946Z,4220.00
2019-03-29T10:59:34.927Z,7200.00
2019-03-29T11:00:34.836Z,6232.00
2019-03-29T11:01:34.826Z,7376.00
2019-03-29T11:02:34.838Z,7596.00
2019-03-29T11:03:34.841Z,7716.00
2019-03-29T11:04:34.790Z,7764.00
2019-03-29T11:05:34.786Z,7944.00
2019-03-29T11:06:34.793Z,8168.00
2019-03-29T11:07:34.780Z,8444.00
2019-03-29T11:08:34.749Z,8616.00
2019-03-29T11:09:37.005Z,8760.00
2019-03-29T11:10:34.720Z,8936.00
2019-03-29T11:11:34.710Z,8932.00
2019-03-29T11:12:34.714Z,8660.00
2019-03-29T11:13:34.716Z,7272.00
2019-03-29T11:14:34.678Z,7964.00
2019-03-29T11:15:34.663Z,9088.00
2019-03-29T11:16:34.661Z,8244.00
2019-03-29T11:17:34.666Z,9328.00
2019-03-29T11:18:34.631Z,9480.00
2019-03-29T11:19:34.625Z,9604.00
2019-03-29T11:20:34.609Z,9148.00
2019-03-29T11:21:34.605Z,9680.00
2019-03-29T11:22:34.615Z,2056.00
2019-03-29T11:23:34.605Z,2368.00
2019-03-29T11:24:34.565Z,5844.00
2019-03-29T11:25:34.553Z,3464.00
2019-03-29T11:26:34.550Z,2036.00
2019-03-29T11:27:34.530Z,2312.00
2019-03-29T11:28:34.553Z,3292.00
2019-03-29T11:29:34.511Z,10024.00
2019-03-29T11:30:42.237Z,6796.00
2019-03-29T11:31:35.482Z,2412.00
2019-03-29T11:32:34.475Z,10276.00
2019-03-29T11:33:34.489Z,9876.00
2019-03-29T11:34:34.449Z,8928.00
2019-03-29T11:35:34.441Z,9200.00
2019-03-29T11:36:34.447Z,6052.00
2019-03-29T11:37:34.417Z,2020.00
2019-03-29T11:38:34.435Z,10156.00
2019-03-29T11:39:34.398Z,2272.00
2019-03-29T11:40:34.392Z,2008.00
2019-03-29T11:41:34.374Z,1704.00
2019-03-29T11:42:34.376Z,1780.00
2019-03-29T11:43:34.375Z,2412.00
2019-03-29T11:44:34.337Z,10432.00
2019-03-29T11:45:34.327Z,4156.00
2019-03-29T11:46:34.316Z,11072.00
2019-03-29T11:47:34.348Z,2300.00
2019-03-29T11:48:34.322Z,2308.00
2019-03-29T11:49:34.285Z,9884.00
2019-03-29T11:50:34.270Z,2508.00
2019-03-29T11:51:34.259Z,2612.00
2019-03-29T11:52:34.250Z,6888.00
2019-03-29T11:53:34.262Z,10200.00
2019-03-29T11:54:34.230Z,11300.00
2019-03-29T11:55:34.272Z,2572.00
2019-03-29T11:56:34.209Z,8384.00
2019-03-29T11:57:34.211Z,3944.00
2019-03-29T11:58:34.225Z,10920.00
2019-03-29T11:59:34.174Z,10740.00
2019-03-29T12:00:34.161Z,10636.00
2019-03-29T12:01:34.152Z,4492.00
2019-03-29T12:02:34.135Z,2548.00
2019-03-29T12:03:34.148Z,10960.00
2019-03-29T12:04:34.113Z,10928.00
2019-03-29T12:05:36.219Z,10852.00
2019-03-29T12:06:34.092Z,10836.00
2019-03-29T12:07:34.081Z,10672.00
2019-03-29T12:08:34.100Z,10528.00
2019-03-29T12:09:34.055Z,10680.00
2019-03-29T12:10:34.049Z,10604.00
2019-03-29T12:11:34.033Z,10568.00
2019-03-29T12:12:34.024Z,10388.00
2019-03-29T12:13:40.998Z,10304.00
2019-03-29T12:14:34.999Z,10380.00
2019-03-29T12:15:33.989Z,8568.00
2019-03-29T12:16:33.984Z,10220.00
2019-03-29T12:17:33.966Z,10540.00
2019-03-29T12:18:33.958Z,10620.00
2019-03-29T12:19:33.973Z,10508.00
2019-03-29T12:20:33.935Z,10620.00
2019-03-29T12:21:33.923Z,10692.00
2019-03-29T12:22:33.929Z,10720.00
2019-03-29T12:23:33.900Z,10864.00
2019-03-29T12:24:33.913Z,11072.00
2019-03-29T12:25:33.881Z,4140.00
2019-03-29T12:26:33.869Z,2640.00
2019-03-29T12:27:33.859Z,4404.00
2019-03-29T12:28:33.852Z,10100.00
2019-03-29T12:29:33.856Z,11032.00
2019-03-29T12:30:33.833Z,10920.00
2019-03-29T12:31:33.809Z,10796.00
2019-03-29T12:32:33.804Z,10492.00
2019-03-29T12:33:33.794Z,10392.00
2019-03-29T12:34:33.804Z,10144.00
2019-03-29T12:35:33.766Z,10252.00
2019-03-29T12:36:33.756Z,10288.00
2019-03-29T12:37:33.743Z,10236.00
2019-03-29T12:38:33.735Z,10396.00
2019-03-29T12:39:33.751Z,10244.00
2019-03-29T12:40:33.712Z,9140.00